sensor_id;sensor_type;location;lat;lon;timestamp;P1;durP1;ratioP1;P2;durP2;ratioP2
14890;SDS011;7537;48.014;11.590;2023-02-08T00:04:39;15.86;;;9.64;;
14890;SDS011;7537;48.014;11.590;2023-02-08T00:10:07;16.78;;;9.97;;
14890;SDS011;7537;48.014;11.590;2023-02-08T00:15:37;18.36;;;9.66;;
14890;SDS011;7537;48.014;11.590;2023-02-08T00:21:07;13.39;;;9.49;;
14890;SDS011;7537;48.014;11.590;2023-02-08T00:26:35;13.47;;;9.05;;
14890;SDS011;7537;48.014;11.590;2023-02-08T00:32:02;13.88;;;8.73;;
14890;SDS011;7537;48.014;11.590;2023-02-08T00:37:30;21.90;;;10.98;;
14890;SDS011;7537;48.014;11.590;2023-02-08T00:42:58;19.68;;;11.24;;
14890;SDS011;7537;48.014;11.590;2023-02-08T00:48:26;18.08;;;9.92;;
14890;SDS011;7537;48.014;11.590;2023-02-08T00:53:53;14.06;;;10.71;;
14890;SDS011;7537;48.014;11.590;2023-02-08T00:59:24;13.68;;;10.30;;
14890;SDS011;7537;48.014;11.590;2023-02-08T01:04:52;19.06;;;9.94;;
14890;SDS011;7537;48.014;11.590;2023-02-08T01:10:19;15.86;;;9.61;;
14890;SDS011;7537;48.014;11.590;2023-02-08T01:15:46;15.04;;;8.88;;
14890;SDS011;7537;48.014;11.590;2023-02-08T01:21:14;13.33;;;8.73;;
14890;SDS011;7537;48.014;11.590;2023-02-08T01:26:42;13.59;;;7.95;;
14890;SDS011;7537;48.014;11.590;2023-02-08T01:32:09;17.71;;;9.57;;
14890;SDS011;7537;48.014;11.590;2023-02-08T01:37:41;14.64;;;9.00;;
14890;SDS011;7537;48.014;11.590;2023-02-08T01:43:11;12.64;;;8.70;;
14890;SDS011;7537;48.014;11.590;2023-02-08T01:48:42;15.03;;;9.73;;
14890;SDS011;7537;48.014;11.590;2023-02-08T01:54:10;13.57;;;9.22;;
14890;SDS011;7537;48.014;11.590;2023-02-08T01:59:47;17.77;;;10.60;;
14890;SDS011;7537;48.014;11.590;2023-02-08T02:05:22;15.89;;;8.81;;
14890;SDS011;7537;48.014;11.590;2023-02-08T02:10:51;13.19;;;9.73;;
14890;SDS011;7537;48.014;11.590;2023-02-08T02:16:19;17.88;;;10.36;;
14890;SDS011;7537;48.014;11.590;2023-02-08T02:21:50;18.02;;;9.94;;
14890;SDS011;7537;48.014;11.590;2023-02-08T02:33:12;15.60;;;9.31;;
14890;SDS011;7537;48.014;11.590;2023-02-08T02:38:46;19.43;;;9.49;;
14890;SDS011;7537;48.014;11.590;2023-02-08T02:44:21;19.34;;;10.01;;
14890;SDS011;7537;48.014;11.590;2023-02-08T02:49:49;20.12;;;10.50;;
14890;SDS011;7537;48.014;11.590;2023-02-08T02:55:20;16.74;;;9.09;;
14890;SDS011;7537;48.014;11.590;2023-02-08T03:00:52;16.47;;;9.32;;
14890;SDS011;7537;48.014;11.590;2023-02-08T03:06:23;18.20;;;8.71;;
14890;SDS011;7537;48.014;11.590;2023-02-08T03:11:54;14.08;;;9.31;;
14890;SDS011;7537;48.014;11.590;2023-02-08T03:17:29;17.28;;;9.30;;
14890;SDS011;7537;48.014;11.590;2023-02-08T03:23:00;14.38;;;8.78;;
14890;SDS011;7537;48.014;11.590;2023-02-08T03:28:32;12.68;;;9.26;;
14890;SDS011;7537;48.014;11.590;2023-02-08T03:34:03;12.66;;;9.08;;
14890;SDS011;7537;48.014;11.590;2023-02-08T03:39:32;17.49;;;10.28;;
14890;SDS011;7537;48.014;11.590;2023-02-08T03:45:03;16.60;;;10.13;;
14890;SDS011;7537;48.014;11.590;2023-02-08T03:50:32;16.20;;;9.27;;
14890;SDS011;7537;48.014;11.590;2023-02-08T03:56:01;14.99;;;9.93;;
14890;SDS011;7537;48.014;11.590;2023-02-08T04:01:33;16.70;;;10.05;;
14890;SDS011;7537;48.014;11.590;2023-02-08T04:07:02;14.20;;;8.13;;
14890;SDS011;7537;48.014;11.590;2023-02-08T04:12:31;15.64;;;9.59;;
14890;SDS011;7537;48.014;11.590;2023-02-08T04:17:58;12.41;;;8.67;;
14890;SDS011;7537;48.014;11.590;2023-02-08T04:23:26;15.03;;;9.12;;
14890;SDS011;7537;48.014;11.590;2023-02-08T04:28:53;13.28;;;8.16;;
14890;SDS011;7537;48.014;11.590;2023-02-08T04:34:20;11.77;;;8.50;;
14890;SDS011;7537;48.014;11.590;2023-02-08T04:39:48;17.71;;;9.32;;
14890;SDS011;7537;48.014;11.590;2023-02-08T04:45:15;17.67;;;9.83;;
14890;SDS011;7537;48.014;11.590;2023-02-08T04:50:43;15.06;;;10.90;;
14890;SDS011;7537;48.014;11.590;2023-02-08T04:56:10;16.69;;;10.06;;
14890;SDS011;7537;48.014;11.590;2023-02-08T05:01:41;16.36;;;9.91;;
14890;SDS011;7537;48.014;11.590;2023-02-08T05:07:08;20.25;;;10.33;;
14890;SDS011;7537;48.014;11.590;2023-02-08T05:12:35;18.15;;;9.36;;
14890;SDS011;7537;48.014;11.590;2023-02-08T05:18:03;14.22;;;9.43;;
14890;SDS011;7537;48.014;11.590;2023-02-08T05:23:30;19.92;;;10.72;;
14890;SDS011;7537;48.014;11.590;2023-02-08T05:28:58;19.96;;;11.63;;
14890;SDS011;7537;48.014;11.590;2023-02-08T05:34:28;20.05;;;11.92;;
14890;SDS011;7537;48.014;11.590;2023-02-08T05:39:55;22.97;;;14.41;;
14890;SDS011;7537;48.014;11.590;2023-02-08T05:45:23;23.31;;;13.13;;
14890;SDS011;7537;48.014;11.590;2023-02-08T05:50:50;28.70;;;14.28;;
14890;SDS011;7537;48.014;11.590;2023-02-08T05:56:17;29.46;;;14.26;;
14890;SDS011;7537;48.014;11.590;2023-02-08T06:01:48;21.20;;;12.86;;
14890;SDS011;7537;48.014;11.590;2023-02-08T06:07:16;21.81;;;13.02;;
14890;SDS011;7537;48.014;11.590;2023-02-08T06:12:43;24.37;;;14.08;;
14890;SDS011;7537;48.014;11.590;2023-02-08T06:18:11;23.96;;;13.69;;
14890;SDS011;7537;48.014;11.590;2023-02-08T06:23:38;24.36;;;13.54;;
14890;SDS011;7537;48.014;11.590;2023-02-08T06:29:05;19.97;;;12.92;;
14890;SDS011;7537;48.014;11.590;2023-02-08T06:34:33;24.06;;;13.29;;
14890;SDS011;7537;48.014;11.590;2023-02-08T06:40:00;24.11;;;11.82;;
14890;SDS011;7537;48.014;11.590;2023-02-08T06:45:28;29.17;;;13.27;;
14890;SDS011;7537;48.014;11.590;2023-02-08T06:50:55;22.07;;;13.22;;
14890;SDS011;7537;48.014;11.590;2023-02-08T06:56:22;25.26;;;12.24;;
14890;SDS011;7537;48.014;11.590;2023-02-08T07:01:58;22.98;;;13.29;;
14890;SDS011;7537;48.014;11.590;2023-02-08T07:07:26;20.15;;;10.59;;
14890;SDS011;7537;48.014;11.590;2023-02-08T07:12:53;29.26;;;12.74;;
14890;SDS011;7537;48.014;11.590;2023-02-08T07:18:21;20.90;;;11.44;;
14890;SDS011;7537;48.014;11.590;2023-02-08T07:23:48;18.27;;;11.48;;
14890;SDS011;7537;48.014;11.590;2023-02-08T07:29:15;21.12;;;14.93;;
14890;SDS011;7537;48.014;11.590;2023-02-08T07:34:43;23.31;;;13.74;;
14890;SDS011;7537;48.014;11.590;2023-02-08T07:40:11;22.43;;;12.89;;
14890;SDS011;7537;48.014;11.590;2023-02-08T07:45:38;22.11;;;13.34;;
14890;SDS011;7537;48.014;11.590;2023-02-08T07:51:05;24.19;;;12.92;;
14890;SDS011;7537;48.014;11.590;2023-02-08T07:56:33;29.33;;;12.23;;
14890;SDS011;7537;48.014;11.590;2023-02-08T08:02:08;19.47;;;12.12;;
14890;SDS011;7537;48.014;11.590;2023-02-08T08:07:35;16.11;;;10.04;;
14890;SDS011;7537;48.014;11.590;2023-02-08T08:13:03;18.43;;;11.74;;
14890;SDS011;7537;48.014;11.590;2023-02-08T08:18:31;20.57;;;13.25;;
14890;SDS011;7537;48.014;11.590;2023-02-08T08:23:58;17.17;;;8.90;;
14890;SDS011;7537;48.014;11.590;2023-02-08T08:29:25;23.00;;;15.26;;
14890;SDS011;7537;48.014;11.590;2023-02-08T08:34:52;14.28;;;10.56;;
14890;SDS011;7537;48.014;11.590;2023-02-08T08:40:20;19.86;;;12.91;;
14890;SDS011;7537;48.014;11.590;2023-02-08T08:45:47;12.84;;;9.24;;
14890;SDS011;7537;48.014;11.590;2023-02-08T08:51:15;17.24;;;12.54;;
14890;SDS011;7537;48.014;11.590;2023-02-08T08:56:43;21.08;;;12.68;;
14890;SDS011;7537;48.014;11.590;2023-02-08T09:02:25;14.54;;;12.04;;
14890;SDS011;7537;48.014;11.590;2023-02-08T09:07:52;16.57;;;10.26;;
14890;SDS011;7537;48.014;11.590;2023-02-08T09:13:24;18.93;;;12.33;;
14890;SDS011;7537;48.014;11.590;2023-02-08T09:18:51;17.21;;;10.91;;
14890;SDS011;7537;48.014;11.590;2023-02-08T09:24:19;16.03;;;10.14;;
14890;SDS011;7537;48.014;11.590;2023-02-08T09:29:46;17.51;;;11.58;;
14890;SDS011;7537;48.014;11.590;2023-02-08T09:35:13;18.21;;;12.51;;
14890;SDS011;7537;48.014;11.590;2023-02-08T09:40:44;12.51;;;8.96;;
14890;SDS011;7537;48.014;11.590;2023-02-08T09:46:15;13.65;;;10.30;;
14890;SDS011;7537;48.014;11.590;2023-02-08T09:51:44;22.48;;;10.06;;
14890;SDS011;7537;48.014;11.590;2023-02-08T09:57:15;9.66;;;7.11;;
14890;SDS011;7537;48.014;11.590;2023-02-08T10:02:51;13.74;;;10.04;;
14890;SDS011;7537;48.014;11.590;2023-02-08T10:08:19;13.78;;;12.52;;
14890;SDS011;7537;48.014;11.590;2023-02-08T10:13:57;17.71;;;13.01;;
14890;SDS011;7537;48.014;11.590;2023-02-08T10:19:30;15.52;;;11.29;;
14890;SDS011;7537;48.014;11.590;2023-02-08T10:25:09;12.81;;;9.90;;
14890;SDS011;7537;48.014;11.590;2023-02-08T10:30:38;13.80;;;9.81;;
14890;SDS011;7537;48.014;11.590;2023-02-08T10:36:12;23.56;;;11.89;;
14890;SDS011;7537;48.014;11.590;2023-02-08T10:41:40;12.88;;;10.91;;
14890;SDS011;7537;48.014;11.590;2023-02-08T10:47:10;17.48;;;13.93;;
14890;SDS011;7537;48.014;11.590;2023-02-08T10:52:39;15.31;;;8.46;;
14890;SDS011;7537;48.014;11.590;2023-02-08T10:58:06;16.59;;;11.96;;
14890;SDS011;7537;48.014;11.590;2023-02-08T11:03:51;16.12;;;11.54;;
14890;SDS011;7537;48.014;11.590;2023-02-08T11:09:26;14.51;;;11.43;;
14890;SDS011;7537;48.014;11.590;2023-02-08T11:14:54;12.11;;;8.72;;
14890;SDS011;7537;48.014;11.590;2023-02-08T11:20:23;17.80;;;12.54;;
14890;SDS011;7537;48.014;11.590;2023-02-08T11:25:52;16.46;;;11.79;;
14890;SDS011;7537;48.014;11.590;2023-02-08T11:31:19;14.44;;;10.86;;
14890;SDS011;7537;48.014;11.590;2023-02-08T11:36:47;16.92;;;10.57;;
14890;SDS011;7537;48.014;11.590;2023-02-08T11:42:16;16.73;;;12.87;;
14890;SDS011;7537;48.014;11.590;2023-02-08T11:47:46;20.89;;;12.52;;
14890;SDS011;7537;48.014;11.590;2023-02-08T11:53:18;15.92;;;10.71;;
14890;SDS011;7537;48.014;11.590;2023-02-08T11:58:56;20.76;;;12.55;;
14890;SDS011;7537;48.014;11.590;2023-02-08T12:04:32;13.70;;;8.83;;
14890;SDS011;7537;48.014;11.590;2023-02-08T12:15:54;19.19;;;12.66;;
14890;SDS011;7537;48.014;11.590;2023-02-08T12:21:27;18.01;;;13.54;;
14890;SDS011;7537;48.014;11.590;2023-02-08T12:27:04;13.06;;;9.18;;
14890;SDS011;7537;48.014;11.590;2023-02-08T12:32:37;16.48;;;9.96;;
14890;SDS011;7537;48.014;11.590;2023-02-08T12:38:07;17.04;;;12.14;;
14890;SDS011;7537;48.014;11.590;2023-02-08T12:43:40;14.49;;;11.80;;
14890;SDS011;7537;48.014;11.590;2023-02-08T12:49:17;17.48;;;12.05;;
14890;SDS011;7537;48.014;11.590;2023-02-08T12:54:51;15.06;;;9.36;;
14890;SDS011;7537;48.014;11.590;2023-02-08T13:00:20;17.71;;;11.82;;
14890;SDS011;7537;48.014;11.590;2023-02-08T13:05:51;14.30;;;9.34;;
14890;SDS011;7537;48.014;11.590;2023-02-08T13:11:21;17.29;;;12.26;;
14890;SDS011;7537;48.014;11.590;2023-02-08T13:16:51;18.87;;;17.57;;
14890;SDS011;7537;48.014;11.590;2023-02-08T13:22:19;18.07;;;16.36;;
14890;SDS011;7537;48.014;11.590;2023-02-08T13:27:47;17.06;;;13.15;;
14890;SDS011;7537;48.014;11.590;2023-02-08T13:33:15;18.12;;;13.55;;
14890;SDS011;7537;48.014;11.590;2023-02-08T13:38:44;20.20;;;13.49;;
14890;SDS011;7537;48.014;11.590;2023-02-08T13:44:17;16.36;;;12.52;;
14890;SDS011;7537;48.014;11.590;2023-02-08T13:49:52;17.98;;;13.22;;
14890;SDS011;7537;48.014;11.590;2023-02-08T13:55:42;20.64;;;14.71;;
14890;SDS011;7537;48.014;11.590;2023-02-08T14:01:18;19.33;;;13.33;;
14890;SDS011;7537;48.014;11.590;2023-02-08T14:06:50;17.80;;;10.87;;
14890;SDS011;7537;48.014;11.590;2023-02-08T14:12:24;17.42;;;11.61;;
14890;SDS011;7537;48.014;11.590;2023-02-08T14:17:54;16.49;;;10.89;;
14890;SDS011;7537;48.014;11.590;2023-02-08T14:23:23;20.23;;;13.22;;
14890;SDS011;7537;48.014;11.590;2023-02-08T14:28:53;31.77;;;14.73;;
14890;SDS011;7537;48.014;11.590;2023-02-08T14:34:26;19.74;;;13.97;;
14890;SDS011;7537;48.014;11.590;2023-02-08T14:45:40;21.08;;;14.63;;
14890;SDS011;7537;48.014;11.590;2023-02-08T14:51:15;18.15;;;12.94;;
14890;SDS011;7537;48.014;11.590;2023-02-08T14:56:45;24.43;;;13.58;;
14890;SDS011;7537;48.014;11.590;2023-02-08T15:02:18;23.86;;;15.20;;
14890;SDS011;7537;48.014;11.590;2023-02-08T15:07:50;18.98;;;14.66;;
14890;SDS011;7537;48.014;11.590;2023-02-08T15:13:18;21.36;;;13.29;;
14890;SDS011;7537;48.014;11.590;2023-02-08T15:18:47;27.81;;;10.50;;
14890;SDS011;7537;48.014;11.590;2023-02-08T15:24:16;20.27;;;13.87;;
14890;SDS011;7537;48.014;11.590;2023-02-08T15:29:44;17.02;;;12.00;;
14890;SDS011;7537;48.014;11.590;2023-02-08T15:35:13;18.59;;;13.77;;
14890;SDS011;7537;48.014;11.590;2023-02-08T15:40:43;21.52;;;14.28;;
14890;SDS011;7537;48.014;11.590;2023-02-08T15:46:27;13.83;;;7.28;;
14890;SDS011;7537;48.014;11.590;2023-02-08T15:51:55;15.25;;;8.34;;
14890;SDS011;7537;48.014;11.590;2023-02-08T15:57:30;18.62;;;13.48;;
14890;SDS011;7537;48.014;11.590;2023-02-08T16:02:59;34.82;;;21.07;;
14890;SDS011;7537;48.014;11.590;2023-02-08T16:08:31;17.04;;;13.97;;
14890;SDS011;7537;48.014;11.590;2023-02-08T16:14:00;21.84;;;12.68;;
14890;SDS011;7537;48.014;11.590;2023-02-08T16:19:31;21.13;;;14.79;;
14890;SDS011;7537;48.014;11.590;2023-02-08T16:30:47;24.74;;;18.39;;
14890;SDS011;7537;48.014;11.590;2023-02-08T16:36:20;17.59;;;11.87;;
14890;SDS011;7537;48.014;11.590;2023-02-08T16:42:11;19.82;;;12.61;;
14890;SDS011;7537;48.014;11.590;2023-02-08T16:47:46;22.54;;;14.85;;
14890;SDS011;7537;48.014;11.590;2023-02-08T16:53:14;19.76;;;12.84;;
14890;SDS011;7537;48.014;11.590;2023-02-08T16:58:41;21.54;;;14.76;;
14890;SDS011;7537;48.014;11.590;2023-02-08T17:04:08;19.59;;;12.01;;
14890;SDS011;7537;48.014;11.590;2023-02-08T17:09:39;20.53;;;13.79;;
14890;SDS011;7537;48.014;11.590;2023-02-08T17:15:07;24.49;;;14.42;;
14890;SDS011;7537;48.014;11.590;2023-02-08T17:20:35;18.02;;;13.15;;
14890;SDS011;7537;48.014;11.590;2023-02-08T17:26:04;20.38;;;13.58;;
14890;SDS011;7537;48.014;11.590;2023-02-08T17:31:31;20.94;;;13.18;;
14890;SDS011;7537;48.014;11.590;2023-02-08T17:36:59;24.71;;;15.40;;
14890;SDS011;7537;48.014;11.590;2023-02-08T17:42:27;20.88;;;13.43;;
14890;SDS011;7537;48.014;11.590;2023-02-08T17:47:54;19.02;;;14.03;;
14890;SDS011;7537;48.014;11.590;2023-02-08T17:53:22;21.00;;;13.36;;
14890;SDS011;7537;48.014;11.590;2023-02-08T17:58:50;20.84;;;12.58;;
14890;SDS011;7537;48.014;11.590;2023-02-08T18:04:17;22.21;;;13.16;;
14890;SDS011;7537;48.014;11.590;2023-02-08T18:09:48;21.45;;;13.66;;
14890;SDS011;7537;48.014;11.590;2023-02-08T18:15:16;22.82;;;13.59;;
14890;SDS011;7537;48.014;11.590;2023-02-08T18:20:44;18.65;;;13.41;;
14890;SDS011;7537;48.014;11.590;2023-02-08T18:26:12;21.67;;;14.18;;
14890;SDS011;7537;48.014;11.590;2023-02-08T18:31:40;24.87;;;14.04;;
14890;SDS011;7537;48.014;11.590;2023-02-08T18:37:09;25.33;;;13.64;;
14890;SDS011;7537;48.014;11.590;2023-02-08T18:42:37;23.89;;;14.31;;
14890;SDS011;7537;48.014;11.590;2023-02-08T18:48:04;22.29;;;14.41;;
14890;SDS011;7537;48.014;11.590;2023-02-08T18:53:33;21.20;;;12.85;;
14890;SDS011;7537;48.014;11.590;2023-02-08T18:59:00;22.49;;;14.26;;
14890;SDS011;7537;48.014;11.590;2023-02-08T19:04:28;37.11;;;24.24;;
14890;SDS011;7537;48.014;11.590;2023-02-08T19:10:04;34.94;;;21.40;;
14890;SDS011;7537;48.014;11.590;2023-02-08T19:15:33;30.94;;;19.69;;
14890;SDS011;7537;48.014;11.590;2023-02-08T19:21:02;30.75;;;17.61;;
14890;SDS011;7537;48.014;11.590;2023-02-08T19:26:31;24.69;;;14.86;;
14890;SDS011;7537;48.014;11.590;2023-02-08T19:31:59;28.31;;;15.96;;
14890;SDS011;7537;48.014;11.590;2023-02-08T19:37:30;25.88;;;15.75;;
14890;SDS011;7537;48.014;11.590;2023-02-08T19:42:58;24.48;;;16.91;;
14890;SDS011;7537;48.014;11.590;2023-02-08T19:48:29;26.87;;;15.48;;
14890;SDS011;7537;48.014;11.590;2023-02-08T19:53:56;26.27;;;14.17;;
14890;SDS011;7537;48.014;11.590;2023-02-08T19:59:25;21.67;;;13.88;;
14890;SDS011;7537;48.014;11.590;2023-02-08T20:04:52;21.97;;;15.53;;
14890;SDS011;7537;48.014;11.590;2023-02-08T20:10:28;23.20;;;14.21;;
14890;SDS011;7537;48.014;11.590;2023-02-08T20:15:56;23.61;;;14.29;;
14890;SDS011;7537;48.014;11.590;2023-02-08T20:21:24;26.33;;;15.17;;
14890;SDS011;7537;48.014;11.590;2023-02-08T20:26:52;23.81;;;14.58;;
14890;SDS011;7537;48.014;11.590;2023-02-08T20:32:19;25.54;;;13.58;;
14890;SDS011;7537;48.014;11.590;2023-02-08T20:37:46;29.42;;;15.16;;
14890;SDS011;7537;48.014;11.590;2023-02-08T20:43:14;22.57;;;13.80;;
14890;SDS011;7537;48.014;11.590;2023-02-08T20:48:42;25.61;;;15.23;;
14890;SDS011;7537;48.014;11.590;2023-02-08T20:54:09;23.76;;;14.31;;
14890;SDS011;7537;48.014;11.590;2023-02-08T20:59:37;27.37;;;12.71;;
14890;SDS011;7537;48.014;11.590;2023-02-08T21:05:05;20.75;;;13.85;;
14890;SDS011;7537;48.014;11.590;2023-02-08T21:10:36;25.58;;;12.81;;
14890;SDS011;7537;48.014;11.590;2023-02-08T21:16:04;43.84;;;19.81;;
14890;SDS011;7537;48.014;11.590;2023-02-08T21:21:32;27.00;;;15.86;;
14890;SDS011;7537;48.014;11.590;2023-02-08T21:26:59;27.55;;;15.34;;
14890;SDS011;7537;48.014;11.590;2023-02-08T21:32:27;32.88;;;17.17;;
14890;SDS011;7537;48.014;11.590;2023-02-08T21:37:54;28.42;;;15.56;;
14890;SDS011;7537;48.014;11.590;2023-02-08T21:43:23;30.71;;;15.47;;
14890;SDS011;7537;48.014;11.590;2023-02-08T21:48:51;33.83;;;16.05;;
14890;SDS011;7537;48.014;11.590;2023-02-08T21:54:19;38.33;;;17.28;;
14890;SDS011;7537;48.014;11.590;2023-02-08T21:59:47;56.63;;;20.64;;
14890;SDS011;7537;48.014;11.590;2023-02-08T22:05:15;44.96;;;18.94;;
14890;SDS011;7537;48.014;11.590;2023-02-08T22:10:46;43.76;;;20.26;;
14890;SDS011;7537;48.014;11.590;2023-02-08T22:16:14;46.53;;;22.11;;
14890;SDS011;7537;48.014;11.590;2023-02-08T22:21:42;28.01;;;15.95;;
14890;SDS011;7537;48.014;11.590;2023-02-08T22:27:09;26.61;;;15.23;;
14890;SDS011;7537;48.014;11.590;2023-02-08T22:32:39;22.57;;;12.37;;
14890;SDS011;7537;48.014;11.590;2023-02-08T22:38:06;23.61;;;13.16;;
14890;SDS011;7537;48.014;11.590;2023-02-08T22:43:34;20.18;;;12.13;;
14890;SDS011;7537;48.014;11.590;2023-02-08T22:49:05;27.60;;;12.65;;
14890;SDS011;7537;48.014;11.590;2023-02-08T22:54:33;22.92;;;12.24;;
14890;SDS011;7537;48.014;11.590;2023-02-08T23:00:02;18.65;;;11.18;;
14890;SDS011;7537;48.014;11.590;2023-02-08T23:05:30;21.05;;;13.28;;
14890;SDS011;7537;48.014;11.590;2023-02-08T23:11:01;19.89;;;12.64;;
14890;SDS011;7537;48.014;11.590;2023-02-08T23:16:29;29.21;;;16.94;;
14890;SDS011;7537;48.014;11.590;2023-02-08T23:21:58;29.58;;;15.97;;
14890;SDS011;7537;48.014;11.590;2023-02-08T23:27:25;23.68;;;14.28;;
14890;SDS011;7537;48.014;11.590;2023-02-08T23:32:53;24.15;;;14.00;;
14890;SDS011;7537;48.014;11.590;2023-02-08T23:38:21;19.46;;;12.64;;
14890;SDS011;7537;48.014;11.590;2023-02-08T23:43:49;19.51;;;12.21;;
14890;SDS011;7537;48.014;11.590;2023-02-08T23:49:16;18.65;;;12.78;;
14890;SDS011;7537;48.014;11.590;2023-02-08T23:54:44;17.24;;;11.82;;
